Time;durP1;ratioP1;P1;durP2;ratioP2;P2;SDS_P1;SDS_P2;PMS_P1;PMS_P2;Temp;Humidity;BMP_temperature;BMP_pressure;BME280_temperature;BME280_humidity;BME280_pressure;Samples;Min_cycle;Max_cycle;Signal;HPM_P1;HPM_P2
2024/04/11 00:00:15;;;;;;;;;;;21.40;50.90;;;;;;1525686;77;1103;-70
2024/04/11 00:02:17;;;;;;;;;;;21.30;50.90;;;;;;1514805;77;817;-74
2024/04/11 00:04:19;;;;;;;;;;;21.40;50.90;;;;;;1518397;77;668;-70
2024/04/11 00:06:21;;;;;;;;;;;21.30;50.80;;;;;;1524056;77;673;-68
2024/04/11 00:08:23;;;;;;;;;;;21.30;50.90;;;;;;1528689;77;1616;-70
2024/04/11 00:10:25;;;;;;;;;;;21.30;51.00;;;;;;1522417;77;681;-70
2024/04/11 00:12:27;;;;;;;;;;;21.30;51.00;;;;;;1525369;77;1914;-69
2024/04/11 00:14:29;;;;;;;;;;;21.40;51.00;;;;;;1529296;77;724;-71
2024/04/11 00:16:31;;;;;;;;;;;21.30;51.00;;;;;;1525890;77;667;-71
2024/04/11 00:18:33;;;;;;;;;;;21.40;50.90;;;;;;1522855;77;1133;-72
2024/04/11 00:20:35;;;;;;;;;;;21.30;51.00;;;;;;1519161;77;788;-69
2024/04/11 00:22:37;;;;;;;;;;;21.30;51.00;;;;;;1526184;77;1554;-72
2024/04/11 00:24:39;;;;;;;;;;;21.30;51.00;;;;;;1522455;77;665;-70
2024/04/11 00:26:41;;;;;;;;;;;21.30;51.00;;;;;;1523625;77;765;-68
2024/04/11 00:28:43;;;;;;;;;;;21.30;51.00;;;;;;1520034;77;1155;-71
2024/04/11 00:30:45;;;;;;;;;;;21.50;51.20;;;;;;1513619;77;640;-68
2024/04/11 00:32:48;;;;;;;;;;;21.30;51.00;;;;;;1520898;77;1931;-70
2024/04/11 00:34:50;;;;;;;;;;;21.50;51.20;;;;;;1523703;77;1328;-71
2024/04/11 00:36:53;;;;;;;;;;;21.30;51.00;;;;;;1527365;77;664;-69
2024/04/11 00:38:55;;;;;;;;;;;21.30;51.00;;;;;;1525014;77;1131;-69
2024/04/11 00:40:57;;;;;;;;;;;21.40;51.00;;;;;;1512224;77;724;-69
2024/04/11 00:42:59;;;;;;;;;;;21.30;51.00;;;;;;1533165;77;662;-70
2024/04/11 00:45:01;;;;;;;;;;;21.30;51.10;;;;;;1526606;77;692;-70
2024/04/11 00:47:09;;;;;;;;;;;21.40;51.10;;;;;;1518189;77;723;-71
2024/04/11 00:49:07;;;;;;;;;;;21.30;51.10;;;;;;1512325;76;1599;-69
2024/04/11 00:51:08;;;;;;;;;;;21.30;51.10;;;;;;1516545;77;762;-71
2024/04/11 00:53:11;;;;;;;;;;;21.30;51.10;;;;;;1519599;77;1941;-68
2024/04/11 00:55:14;;;;;;;;;;;21.30;51.20;;;;;;1515506;77;754;-68
2024/04/11 00:57:16;;;;;;;;;;;21.30;51.10;;;;;;1518738;77;802;-69
2024/04/11 00:59:18;;;;;;;;;;;21.30;51.10;;;;;;1524397;77;1143;-71
2024/04/11 01:01:20;;;;;;;;;;;21.30;51.10;;;;;;1519049;77;1031;-69
2024/04/11 01:03:22;;;;;;;;;;;21.30;51.20;;;;;;1516404;77;1561;-72
2024/04/11 01:05:24;;;;;;;;;;;21.30;51.10;;;;;;1511773;77;744;-73
2024/04/11 01:07:26;;;;;;;;;;;21.30;51.20;;;;;;1527719;76;711;-74
2024/04/11 01:09:27;;;;;;;;;;;21.30;51.10;;;;;;1514059;76;1233;-75
2024/04/11 01:11:29;;;;;;;;;;;21.40;51.20;;;;;;1526616;76;692;-69
2024/04/11 01:13:31;;;;;;;;;;;21.40;51.30;;;;;;1552712;74;1942;-74
2024/04/11 01:15:34;;;;;;;;;;;21.30;51.30;;;;;;1568678;74;674;-69
2024/04/11 01:17:36;;;;;;;;;;;21.40;51.30;;;;;;1566392;74;1592;-72
2024/04/11 01:19:38;;;;;;;;;;;21.40;51.20;;;;;;1559624;74;1125;-69
2024/04/11 01:21:41;;;;;;;;;;;21.30;51.30;;;;;;1553992;74;701;-69
2024/04/11 01:23:43;;;;;;;;;;;21.30;51.20;;;;;;1555551;74;691;-73
2024/04/11 01:25:45;;;;;;;;;;;21.40;51.20;;;;;;1562639;74;832;-70
2024/04/11 01:27:47;;;;;;;;;;;21.40;51.30;;;;;;1559381;74;1137;-70
2024/04/11 01:29:51;;;;;;;;;;;21.40;51.20;;;;;;1555749;74;563;-69
2024/04/11 01:31:57;;;;;;;;;;;21.40;51.30;;;;;;1555827;74;1638;-68
2024/04/11 01:33:56;;;;;;;;;;;21.30;51.30;;;;;;1562940;74;1916;-70
2024/04/11 01:35:59;;;;;;;;;;;21.30;51.30;;;;;;1565826;74;723;-71
2024/04/11 01:38:01;;;;;;;;;;;21.30;51.30;;;;;;1566961;74;1145;-72
2024/04/11 01:40:07;;;;;;;;;;;21.40;51.30;;;;;;1559900;74;718;-71
2024/04/11 01:42:08;;;;;;;;;;;21.30;51.30;;;;;;1556604;74;1578;-69
2024/04/11 01:44:10;;;;;;;;;;;21.30;51.30;;;;;;1561853;74;816;-68
2024/04/11 01:46:12;;;;;;;;;;;21.40;51.30;;;;;;1559444;74;1470;-68
2024/04/11 01:48:14;;;;;;;;;;;21.40;51.30;;;;;;1519924;76;1143;-70
2024/04/11 01:50:16;;;;;;;;;;;21.40;51.30;;;;;;1509072;78;735;-70
2024/04/11 01:52:18;;;;;;;;;;;21.40;51.30;;;;;;1560761;74;801;-69
2024/04/11 01:54:21;;;;;;;;;;;21.30;51.30;;;;;;1568749;74;1942;-72
2024/04/11 01:56:25;;;;;;;;;;;21.30;51.30;;;;;;1560019;74;716;-68
2024/04/11 01:58:28;;;;;;;;;;;21.40;51.30;;;;;;1553731;74;1843;-69
2024/04/11 02:00:33;;;;;;;;;;;21.40;51.40;;;;;;1549408;75;1540;-70
2024/04/11 02:02:35;;;;;;;;;;;21.30;51.40;;;;;;1521589;76;1592;-69
2024/04/11 02:04:38;;;;;;;;;;;21.30;51.30;;;;;;1520295;76;727;-68
2024/04/11 02:06:40;;;;;;;;;;;21.30;51.40;;;;;;1539016;76;758;-71
2024/04/11 02:08:42;;;;;;;;;;;21.40;51.40;;;;;;1533961;76;1229;-71
2024/04/11 02:10:45;;;;;;;;;;;21.30;51.40;;;;;;1528214;76;788;-71
2024/04/11 02:12:47;;;;;;;;;;;21.30;51.40;;;;;;1531501;76;735;-70
2024/04/11 02:14:49;;;;;;;;;;;21.40;51.40;;;;;;1531304;76;1959;-70
2024/04/11 02:16:54;;;;;;;;;;;21.30;51.40;;;;;;1524805;76;669;-74
2024/04/11 02:18:55;;;;;;;;;;;21.30;51.50;;;;;;1520833;76;1805;-70
2024/04/11 02:20:57;;;;;;;;;;;21.30;51.40;;;;;;1519246;76;686;-73
2024/04/11 02:22:59;;;;;;;;;;;21.30;51.40;;;;;;1528544;76;709;-70
2024/04/11 02:25:01;;;;;;;;;;;21.30;51.50;;;;;;1526752;76;732;-70
2024/04/11 02:27:03;;;;;;;;;;;21.30;51.50;;;;;;1524764;76;751;-72
2024/04/11 02:29:05;;;;;;;;;;;21.30;51.40;;;;;;1526472;76;1380;-69
2024/04/11 02:31:06;;;;;;;;;;;21.30;51.40;;;;;;1530582;76;785;-69
2024/04/11 02:33:10;;;;;;;;;;;21.30;51.50;;;;;;1528444;76;1951;-73
2024/04/11 02:35:14;;;;;;;;;;;21.30;51.50;;;;;;1517579;76;2073;-69
2024/04/11 02:37:15;;;;;;;;;;;21.40;51.50;;;;;;1525126;76;718;-69
2024/04/11 02:39:19;;;;;;;;;;;21.30;51.50;;;;;;1530076;76;1116;-70
2024/04/11 02:41:22;;;;;;;;;;;21.40;51.50;;;;;;1527926;76;692;-69
2024/04/11 02:43:24;;;;;;;;;;;21.30;51.50;;;;;;1521260;76;809;-70
2024/04/11 02:45:27;;;;;;;;;;;21.30;51.50;;;;;;1524053;76;671;-70
2024/04/11 02:47:30;;;;;;;;;;;21.30;51.50;;;;;;1534079;76;576;-73
2024/04/11 02:49:32;;;;;;;;;;;21.30;51.50;;;;;;1518130;76;1143;-69
2024/04/11 02:51:34;;;;;;;;;;;21.30;51.50;;;;;;1533767;76;712;-69
2024/04/11 02:53:38;;;;;;;;;;;21.30;51.50;;;;;;1528127;76;1924;-71
2024/04/11 02:55:40;;;;;;;;;;;21.30;51.50;;;;;;1522465;76;1635;-72
2024/04/11 02:57:44;;;;;;;;;;;21.30;51.60;;;;;;1528192;76;727;-71
2024/04/11 02:59:46;;;;;;;;;;;21.30;51.60;;;;;;1528291;76;673;-71
2024/04/11 03:01:48;;;;;;;;;;;21.30;51.60;;;;;;1547971;74;1009;-72
2024/04/11 03:03:50;;;;;;;;;;;21.30;51.50;;;;;;1549922;75;635;-69
2024/04/11 03:05:52;;;;;;;;;;;21.30;51.60;;;;;;1557382;75;665;-72
2024/04/11 03:07:54;;;;;;;;;;;21.30;51.60;;;;;;1548255;74;1196;-70
2024/04/11 03:09:56;;;;;;;;;;;21.30;51.60;;;;;;1551325;75;1509;-72
2024/04/11 03:11:59;;;;;;;;;;;21.40;51.50;;;;;;1552502;74;698;-72
2024/04/11 03:14:01;;;;;;;;;;;21.30;51.50;;;;;;1555495;74;1918;-71
2024/04/11 03:16:03;;;;;;;;;;;21.30;51.60;;;;;;1553443;75;753;-71
2024/04/11 03:18:05;;;;;;;;;;;21.30;51.60;;;;;;1555453;75;1137;-73
2024/04/11 03:20:10;;;;;;;;;;;21.30;51.50;;;;;;1553608;75;775;-73
2024/04/11 03:22:10;;;;;;;;;;;21.30;51.50;;;;;;1550158;74;1668;-69
2024/04/11 03:24:12;;;;;;;;;;;21.30;51.50;;;;;;1553219;74;1584;-72
2024/04/11 03:26:14;;;;;;;;;;;21.30;51.60;;;;;;1559372;75;795;-70
2024/04/11 03:28:16;;;;;;;;;;;21.30;51.50;;;;;;1551807;75;1125;-69
2024/04/11 03:30:18;;;;;;;;;;;21.30;51.50;;;;;;1561942;74;812;-72
2024/04/11 03:32:20;;;;;;;;;;;21.30;51.50;;;;;;1550258;74;714;-71
2024/04/11 03:34:22;;;;;;;;;;;21.30;51.50;;;;;;1542724;74;1943;-74
2024/04/11 03:36:24;;;;;;;;;;;21.30;51.60;;;;;;1554621;74;702;-73
2024/04/11 03:38:26;;;;;;;;;;;21.30;51.50;;;;;;1549208;75;1521;-73
2024/04/11 03:40:28;;;;;;;;;;;21.30;51.50;;;;;;1548276;74;645;-71
2024/04/11 03:42:31;;;;;;;;;;;21.30;51.50;;;;;;1554508;75;676;-72
2024/04/11 03:44:35;;;;;;;;;;;21.30;51.50;;;;;;1548128;76;725;-71
2024/04/11 03:46:37;;;;;;;;;;;21.30;51.60;;;;;;1551259;74;770;-76
2024/04/11 03:48:39;;;;;;;;;;;21.30;51.60;;;;;;1557088;74;1197;-73
2024/04/11 03:50:41;;;;;;;;;;;21.30;51.60;;;;;;1545706;74;738;-69
2024/04/11 03:52:42;;;;;;;;;;;21.30;51.70;;;;;;1549197;75;1597;-72
2024/04/11 03:54:44;;;;;;;;;;;21.30;51.70;;;;;;1543078;74;1954;-72
2024/04/11 03:56:46;;;;;;;;;;;21.30;51.70;;;;;;1552730;74;702;-69
2024/04/11 03:58:48;;;;;;;;;;;21.30;51.70;;;;;;1557500;75;1128;-73
2024/04/11 04:00:50;;;;;;;;;;;21.30;51.70;;;;;;1546165;74;610;-70
2024/04/11 04:02:52;;;;;;;;;;;21.20;51.50;;;;;;1560782;74;951;-69
2024/04/11 04:04:54;;;;;;;;;;;21.40;51.70;;;;;;1563345;75;709;-70
2024/04/11 04:06:56;;;;;;;;;;;21.30;51.70;;;;;;1565173;74;1346;-72
2024/04/11 04:08:58;;;;;;;;;;;21.30;51.70;;;;;;1551736;74;1197;-71
2024/04/11 04:11:00;;;;;;;;;;;21.30;51.70;;;;;;1567821;74;632;-68
2024/04/11 04:13:03;;;;;;;;;;;21.30;51.70;;;;;;1568690;74;727;-68
2024/04/11 04:15:08;;;;;;;;;;;21.30;51.70;;;;;;1567403;74;1911;-68
2024/04/11 04:17:10;;;;;;;;;;;21.30;51.80;;;;;;1565234;74;749;-69
2024/04/11 04:19:12;;;;;;;;;;;21.30;51.80;;;;;;1561299;74;1194;-71
2024/04/11 04:21:14;;;;;;;;;;;21.30;51.70;;;;;;1558593;74;1581;-70
2024/04/11 04:23:16;;;;;;;;;;;21.20;49.90;;;;;;1567680;74;673;-66
2024/04/11 04:25:18;;;;;;;;;;;21.20;46.80;;;;;;1563447;75;720;-70
2024/04/11 04:27:21;;;;;;;;;;;21.20;46.50;;;;;;1563763;74;706;-68
2024/04/11 04:29:23;;;;;;;;;;;21.20;46.60;;;;;;1570353;74;1098;-70
2024/04/11 04:31:31;;;;;;;;;;;21.10;46.50;;;;;;1561465;74;721;-67
2024/04/11 04:33:33;;;;;;;;;;;21.10;46.50;;;;;;1568841;74;728;-67
2024/04/11 04:35:34;;;;;;;;;;;21.10;46.80;;;;;;1567030;74;1984;-69
2024/04/11 04:37:40;;;;;;;;;;;21.10;46.60;;;;;;1566150;74;545;-69
2024/04/11 04:39:41;;;;;;;;;;;21.10;46.60;;;;;;1565185;74;1866;-69
2024/04/11 04:41:44;;;;;;;;;;;21.10;47.30;;;;;;1560954;74;743;-68
2024/04/11 04:43:52;;;;;;;;;;;21.00;47.00;;;;;;1567333;75;1947;-68
2024/04/11 04:45:52;;;;;;;;;;;21.10;47.20;;;;;;1567153;74;1776;-69
2024/04/11 04:47:54;;;;;;;;;;;21.10;47.20;;;;;;1566410;75;1123;-68
2024/04/11 04:49:59;;;;;;;;;;;21.10;47.70;;;;;;1567415;74;734;-68
2024/04/11 04:52:02;;;;;;;;;;;21.10;47.60;;;;;;1561943;74;716;-69
2024/04/11 04:54:04;;;;;;;;;;;21.10;47.80;;;;;;1563871;74;1922;-70
2024/04/11 04:56:07;;;;;;;;;;;21.10;48.00;;;;;;1565210;74;781;-70
2024/04/11 04:58:09;;;;;;;;;;;21.10;48.00;;;;;;1564272;74;1267;-68
2024/04/11 05:00:13;;;;;;;;;;;21.10;48.20;;;;;;1567754;74;644;-69
2024/04/11 05:02:15;;;;;;;;;;;21.10;48.40;;;;;;1565959;74;1152;-69
2024/04/11 05:04:17;;;;;;;;;;;21.10;48.50;;;;;;1558148;75;572;-69
2024/04/11 05:06:19;;;;;;;;;;;21.10;48.60;;;;;;1549999;76;752;-72
2024/04/11 05:08:23;;;;;;;;;;;21.20;48.80;;;;;;1554163;75;1561;-68
2024/04/11 05:10:26;;;;;;;;;;;21.10;48.50;;;;;;1561320;74;1413;-71
2024/04/11 05:12:42;;;;;;;;;;;21.10;48.70;;;;;;1555030;74;1601;-75
2024/04/11 05:14:38;;;;;;;;;;;21.20;48.80;;;;;;1550511;75;1919;-70
2024/04/11 05:16:41;;;;;;;;;;;21.10;48.90;;;;;;1560467;75;1888;-69
2024/04/11 05:18:42;;;;;;;;;;;21.20;49.00;;;;;;1558422;75;1648;-68
2024/04/11 05:20:45;;;;;;;;;;;21.10;49.10;;;;;;1562238;74;754;-70
2024/04/11 05:22:49;;;;;;;;;;;21.10;49.10;;;;;;1555298;75;1527;-71
2024/04/11 05:24:50;;;;;;;;;;;21.20;49.10;;;;;;1552568;74;1548;-68
2024/04/11 05:26:52;;;;;;;;;;;21.20;49.20;;;;;;1547826;76;745;-72
2024/04/11 05:28:56;;;;;;;;;;;21.10;49.20;;;;;;1551205;75;1156;-70
2024/04/11 05:30:59;;;;;;;;;;;21.10;49.20;;;;;;1560295;74;704;-72
2024/04/11 05:33:01;;;;;;;;;;;21.20;49.20;;;;;;1551861;74;704;-71
2024/04/11 05:35:09;;;;;;;;;;;21.20;49.20;;;;;;1554200;74;1931;-71
2024/04/11 05:37:11;;;;;;;;;;;21.10;49.30;;;;;;1556644;74;759;-69
2024/04/11 05:39:20;;;;;;;;;;;21.20;49.20;;;;;;1550699;75;1128;-71
2024/04/11 05:41:16;;;;;;;;;;;21.20;49.20;;;;;;1546837;74;1615;-72
2024/04/11 05:43:21;;;;;;;;;;;21.20;49.30;;;;;;1553304;75;894;-73
2024/04/11 05:45:24;;;;;;;;;;;21.20;49.20;;;;;;1553953;75;1668;-69
2024/04/11 05:47:25;;;;;;;;;;;21.20;49.30;;;;;;1554657;75;1701;-70
2024/04/11 05:49:27;;;;;;;;;;;21.20;49.30;;;;;;1554349;74;1606;-71
2024/04/11 05:51:29;;;;;;;;;;;21.20;49.30;;;;;;1558722;74;732;-70
2024/04/11 05:53:31;;;;;;;;;;;21.20;49.30;;;;;;1552557;75;741;-73
2024/04/11 05:55:33;;;;;;;;;;;21.20;49.30;;;;;;1554547;74;1939;-71
2024/04/11 05:57:36;;;;;;;;;;;21.20;49.20;;;;;;1544961;74;889;-70
2024/04/11 05:59:38;;;;;;;;;;;21.20;49.30;;;;;;1555050;74;1176;-69
2024/04/11 06:01:40;;;;;;;;;;;21.20;49.30;;;;;;1551979;74;848;-71
2024/04/11 06:03:46;;;;;;;;;;;21.20;49.30;;;;;;1547918;75;1607;-72
2024/04/11 06:05:46;;;;;;;;;;;21.20;49.30;;;;;;1554555;74;1950;-73
2024/04/11 06:07:50;;;;;;;;;;;21.20;49.30;;;;;;1559725;74;1192;-73
2024/04/11 06:09:52;;;;;;;;;;;21.20;49.20;;;;;;1559470;75;676;-69
2024/04/11 06:11:54;;;;;;;;;;;21.20;49.30;;;;;;1553569;75;657;-72
2024/04/11 06:13:56;;;;;;;;;;;21.20;49.30;;;;;;1556901;74;592;-69
2024/04/11 06:15:59;;;;;;;;;;;21.20;49.20;;;;;;1560560;74;1924;-67
2024/04/11 06:18:09;;;;;;;;;;;21.20;49.30;;;;;;1560056;74;1561;-68
2024/04/11 06:20:15;;;;;;;;;;;21.20;49.20;;;;;;1554812;74;1702;-71
2024/04/11 06:22:11;;;;;;;;;;;21.30;49.40;;;;;;1554204;74;1425;-69
2024/04/11 06:24:12;;;;;;;;;;;21.20;49.20;;;;;;1555505;75;1566;-67
2024/04/11 06:26:14;;;;;;;;;;;21.30;49.30;;;;;;1552020;74;689;-68
2024/04/11 06:28:18;;;;;;;;;;;21.30;49.30;;;;;;1547198;75;1204;-69
2024/04/11 06:30:19;;;;;;;;;;;21.20;49.20;;;;;;1559137;75;673;-74
2024/04/11 06:32:21;;;;;;;;;;;21.30;49.30;;;;;;1549417;75;1571;-68
2024/04/11 06:34:23;;;;;;;;;;;21.30;49.30;;;;;;1552661;74;656;-67
2024/04/11 06:36:25;;;;;;;;;;;21.30;49.30;;;;;;1553645;74;1941;-66
2024/04/11 06:38:29;;;;;;;;;;;21.30;49.20;;;;;;1545802;74;1147;-70
2024/04/11 06:40:32;;;;;;;;;;;21.30;49.30;;;;;;1553475;75;1521;-71
2024/04/11 06:42:40;;;;;;;;;;;21.30;49.30;;;;;;1555535;74;698;-75
2024/04/11 06:44:40;;;;;;;;;;;21.30;49.20;;;;;;1548683;76;1635;-71
2024/04/11 06:46:44;;;;;;;;;;;21.30;49.20;;;;;;1557651;75;1680;-74
2024/04/11 06:48:49;;;;;;;;;;;21.30;49.30;;;;;;1550436;74;1723;-73
2024/04/11 06:50:50;;;;;;;;;;;21.30;49.30;;;;;;1550153;74;1205;-71
2024/04/11 06:52:52;;;;;;;;;;;21.30;49.20;;;;;;1545734;74;694;-71
2024/04/11 06:54:53;;;;;;;;;;;21.30;49.20;;;;;;1555700;75;1942;-74
2024/04/11 06:57:03;;;;;;;;;;;21.30;49.10;;;;;;1547591;74;759;-71
2024/04/11 06:59:01;;;;;;;;;;;21.30;49.10;;;;;;1538706;74;1652;-72
2024/04/11 07:01:04;;;;;;;;;;;21.30;49.10;;;;;;1548736;75;724;-71
2024/04/11 07:03:16;;;;;;;;;;;21.40;49.10;;;;;;1544138;74;1087;-71
2024/04/11 07:05:20;;;;;;;;;;;21.40;49.20;;;;;;1550458;75;692;-72
2024/04/11 07:07:23;;;;;;;;;;;21.30;49.10;;;;;;1552945;75;725;-71
2024/04/11 07:09:37;;;;;;;;;;;21.30;49.10;;;;;;1551190;75;1206;-70
2024/04/11 07:11:32;;;;;;;;;;;21.40;49.10;;;;;;1544867;75;1659;-73
2024/04/11 07:13:33;;;;;;;;;;;21.40;49.10;;;;;;1553810;74;1769;-71
2024/04/11 07:15:42;;;;;;;;;;;21.40;49.00;;;;;;1546991;76;1904;-70
2024/04/11 07:17:45;;;;;;;;;;;21.40;49.00;;;;;;1553967;74;1172;-73
2024/04/11 07:19:42;;;;;;;;;;;21.40;49.00;;;;;;1552043;75;1229;-70
2024/04/11 07:21:44;;;;;;;;;;;21.40;49.10;;;;;;1544122;75;707;-69
2024/04/11 07:23:53;;;;;;;;;;;21.40;49.00;;;;;;1554217;74;717;-71
2024/04/11 07:25:51;;;;;;;;;;;21.40;49.00;;;;;;1557871;74;1652;-71
2024/04/11 07:27:55;;;;;;;;;;;21.40;49.00;;;;;;1554258;74;1196;-75
2024/04/11 07:29:57;;;;;;;;;;;21.40;49.00;;;;;;1546404;76;657;-71
2024/04/11 07:31:59;;;;;;;;;;;21.40;49.00;;;;;;1549407;74;626;-74
2024/04/11 07:34:06;;;;;;;;;;;21.40;49.00;;;;;;1554166;74;670;-70
2024/04/11 07:36:07;;;;;;;;;;;21.40;49.00;;;;;;1547071;75;1898;-69
2024/04/11 07:38:08;;;;;;;;;;;21.40;49.00;;;;;;1545767;76;1484;-71
2024/04/11 07:40:31;;;;;;;;;;;21.40;48.90;;;;;;1554319;74;674;-71
2024/04/11 07:42:55;;;;;;;;;;;21.50;49.10;;;;;;1558252;74;1637;-71
2024/04/11 07:44:54;;;;;;;;;;;21.50;49.10;;;;;;1543891;74;1673;-70
2024/04/11 07:46:58;;;;;;;;;;;21.40;48.90;;;;;;1556941;74;623;-71
2024/04/11 07:49:00;;;;;;;;;;;21.50;49.10;;;;;;1556783;75;1335;-73
2024/04/11 07:51:09;;;;;;;;;;;21.40;48.90;;;;;;1537818;75;692;-71
2024/04/11 07:53:14;;;;;;;;;;;21.50;49.00;;;;;;1549947;75;1637;-74
2024/04/11 07:55:14;;;;;;;;;;;21.50;49.00;;;;;;1546491;75;1924;-71
2024/04/11 07:57:16;;;;;;;;;;;21.50;49.00;;;;;;1550637;75;1900;-68
2024/04/11 07:59:18;;;;;;;;;;;21.40;49.00;;;;;;1551120;74;1179;-73
2024/04/11 08:01:30;;;;;;;;;;;21.50;49.00;;;;;;1548092;74;674;-74
2024/04/11 08:03:26;;;;;;;;;;;21.40;48.90;;;;;;1550202;75;1715;-71
2024/04/11 08:05:28;;;;;;;;;;;21.50;49.10;;;;;;1560975;74;1026;-73
2024/04/11 08:07:30;;;;;;;;;;;21.40;48.90;;;;;;1550104;74;666;-71
2024/04/11 08:09:44;;;;;;;;;;;21.50;49.00;;;;;;1559413;74;1186;-70
2024/04/11 08:11:36;;;;;;;;;;;21.50;49.00;;;;;;1554689;74;1708;-70
2024/04/11 08:13:38;;;;;;;;;;;21.50;49.00;;;;;;1558928;74;715;-72
2024/04/11 08:15:40;;;;;;;;;;;21.50;49.00;;;;;;1556418;74;1945;-75
2024/04/11 08:17:42;;;;;;;;;;;21.50;48.90;;;;;;1556981;74;664;-72
2024/04/11 08:19:44;;;;;;;;;;;21.50;49.00;;;;;;1559865;74;1169;-73
2024/04/11 08:21:46;;;;;;;;;;;21.50;48.90;;;;;;1555705;74;929;-70
2024/04/11 08:23:49;;;;;;;;;;;21.50;48.90;;;;;;1555945;74;772;-73
2024/04/11 08:25:52;;;;;;;;;;;21.50;48.90;;;;;;1558556;74;1662;-71
2024/04/11 08:27:56;;;;;;;;;;;21.50;48.90;;;;;;1558776;74;1185;-74
2024/04/11 08:29:58;;;;;;;;;;;21.50;48.90;;;;;;1553714;74;736;-70
2024/04/11 08:32:00;;;;;;;;;;;21.50;48.90;;;;;;1552959;74;633;-72
2024/04/11 08:34:02;;;;;;;;;;;21.50;48.90;;;;;;1553825;74;699;-70
2024/04/11 08:36:04;;;;;;;;;;;21.50;48.90;;;;;;1545860;74;1953;-71
2024/04/11 08:38:07;;;;;;;;;;;21.60;48.90;;;;;;1560685;74;1356;-71
2024/04/11 08:40:10;;;;;;;;;;;21.50;48.90;;;;;;1561059;74;618;-71
2024/04/11 08:42:12;;;;;;;;;;;21.50;48.90;;;;;;1555431;74;656;-73
2024/04/11 08:44:15;;;;;;;;;;;21.60;48.80;;;;;;1556875;74;683;-71
2024/04/11 08:46:17;;;;;;;;;;;21.50;48.80;;;;;;1556153;74;731;-69
2024/04/11 08:48:19;;;;;;;;;;;21.50;48.90;;;;;;1559062;74;1154;-71
2024/04/11 08:50:21;;;;;;;;;;;21.60;48.90;;;;;;1546598;74;695;-71
2024/04/11 08:52:24;;;;;;;;;;;21.60;48.80;;;;;;1553093;74;1312;-71
2024/04/11 08:54:25;;;;;;;;;;;21.50;48.80;;;;;;1550951;74;686;-71
2024/04/11 08:56:28;;;;;;;;;;;21.50;48.80;;;;;;1547831;74;1928;-71
2024/04/11 08:58:30;;;;;;;;;;;21.60;48.80;;;;;;1552802;75;1139;-70
2024/04/11 09:00:31;;;;;;;;;;;21.60;48.70;;;;;;1553575;74;728;-69
2024/04/11 09:02:37;;;;;;;;;;;21.60;48.80;;;;;;1546836;74;739;-70
2024/04/11 09:04:37;;;;;;;;;;;21.60;48.80;;;;;;1553002;74;1033;-71
2024/04/11 09:06:39;;;;;;;;;;;21.60;48.80;;;;;;1522181;76;1463;-74
2024/04/11 09:08:41;;;;;;;;;;;21.60;48.80;;;;;;1526262;76;1180;-73
2024/04/11 09:10:43;;;;;;;;;;;21.60;48.70;;;;;;1524072;76;718;-73
2024/04/11 09:12:49;;;;;;;;;;;21.60;48.70;;;;;;1523715;76;730;-73
2024/04/11 09:14:49;;;;;;;;;;;21.50;48.80;;;;;;1528745;76;1357;-74
2024/04/11 09:17:04;;;;;;;;;;;21.60;48.80;;;;;;1530499;76;1939;-72
2024/04/11 09:19:10;;;;;;;;;;;21.60;48.80;;;;;;1525808;76;1175;-72
2024/04/11 09:21:14;;;;;;;;;;;21.60;48.80;;;;;;1526007;76;1459;-70
2024/04/11 09:23:19;;;;;;;;;;;21.50;48.80;;;;;;1522358;76;1648;-73
2024/04/11 09:25:20;;;;;;;;;;;21.60;48.80;;;;;;1530212;76;1615;-70
2024/04/11 09:27:22;;;;;;;;;;;21.60;48.70;;;;;;1529719;76;1672;-71
2024/04/11 09:29:24;;;;;;;;;;;21.60;48.80;;;;;;1525918;76;1162;-74
2024/04/11 09:31:26;;;;;;;;;;;21.60;48.80;;;;;;1522844;76;737;-73
2024/04/11 09:33:29;;;;;;;;;;;21.60;48.80;;;;;;1535584;76;819;-76
2024/04/11 09:35:32;;;;;;;;;;;21.60;48.70;;;;;;1528807;76;1549;-69
2024/04/11 09:37:35;;;;;;;;;;;21.60;48.70;;;;;;1528658;76;1950;-72
2024/04/11 09:39:48;;;;;;;;;;;21.60;48.70;;;;;;1529824;76;1143;-70
2024/04/11 09:41:51;;;;;;;;;;;21.60;48.70;;;;;;1527400;76;657;-73
2024/04/11 09:43:55;;;;;;;;;;;21.50;48.70;;;;;;1535353;76;654;-71
2024/04/11 09:46:06;;;;;;;;;;;21.50;48.70;;;;;;1528153;76;1636;-70
2024/04/11 09:48:05;;;;;;;;;;;21.60;48.70;;;;;;1523456;76;1723;-71
2024/04/11 09:50:09;;;;;;;;;;;21.50;48.70;;;;;;1530838;76;1700;-71
2024/04/11 09:52:11;;;;;;;;;;;21.50;48.70;;;;;;1525641;76;1591;-72
2024/04/11 09:54:13;;;;;;;;;;;21.60;48.70;;;;;;1529723;76;744;-74
2024/04/11 09:56:15;;;;;;;;;;;21.60;48.70;;;;;;1528195;76;1910;-72
2024/04/11 09:58:20;;;;;;;;;;;21.60;48.70;;;;;;1519329;76;1148;-70
2024/04/11 10:00:48;;;;;;;;;;;21.60;48.70;;;;;;1523768;76;1658;-74
2024/04/11 10:02:28;;;;;;;;;;;21.60;48.70;;;;;;1514617;76;1584;-73
2024/04/11 10:04:42;;;;;;;;;;;21.60;48.70;;;;;;1529905;76;598;-73
2024/04/11 10:06:35;;;;;;;;;;;21.60;48.60;;;;;;1549735;75;1707;-71
2024/04/11 10:08:37;;;;;;;;;;;21.50;48.60;;;;;;1548295;75;1196;-73
2024/04/11 10:10:42;;;;;;;;;;;21.60;48.70;;;;;;1555756;74;636;-74
2024/04/11 10:12:43;;;;;;;;;;;21.60;48.70;;;;;;1555998;74;1644;-70
2024/04/11 10:14:45;;;;;;;;;;;21.60;48.60;;;;;;1544363;74;656;-71
2024/04/11 10:16:48;;;;;;;;;;;21.60;48.70;;;;;;1525100;76;1939;-73
2024/04/11 10:18:53;;;;;;;;;;;21.60;48.60;;;;;;1543271;74;1185;-69
2024/04/11 10:21:05;;;;;;;;;;;21.60;48.60;;;;;;1546670;74;544;-70
2024/04/11 10:23:04;;;;;;;;;;;21.60;48.60;;;;;;1554235;75;1387;-70
2024/04/11 10:25:12;;;;;;;;;;;21.60;48.60;;;;;;1541924;74;1120;-70
2024/04/11 10:27:18;;;;;;;;;;;21.60;48.60;;;;;;1555996;74;1589;-70
2024/04/11 10:29:18;;;;;;;;;;;21.60;48.60;;;;;;1554770;74;1550;-70
2024/04/11 10:31:22;;;;;;;;;;;21.60;48.60;;;;;;1553727;74;1360;-69
2024/04/11 10:33:29;;;;;;;;;;;21.50;48.60;;;;;;1551680;74;1591;-71
2024/04/11 10:35:28;;;;;;;;;;;21.50;48.60;;;;;;1551851;74;1642;-73
2024/04/11 10:37:33;;;;;;;;;;;21.60;48.60;;;;;;1554377;74;1930;-72
2024/04/11 10:39:35;;;;;;;;;;;21.50;48.60;;;;;;1548969;74;1661;-70
2024/04/11 10:41:37;;;;;;;;;;;21.60;48.60;;;;;;1547666;74;741;-72
2024/04/11 10:43:39;;;;;;;;;;;21.60;48.60;;;;;;1549000;74;1049;-70
2024/04/11 10:45:41;;;;;;;;;;;21.60;48.50;;;;;;1558771;74;1567;-73
2024/04/11 10:47:45;;;;;;;;;;;21.60;48.50;;;;;;1564983;74;1275;-72
2024/04/11 10:49:47;;;;;;;;;;;21.50;48.50;;;;;;1557558;74;1336;-73
2024/04/11 10:51:50;;;;;;;;;;;21.60;48.50;;;;;;1565591;75;1666;-71
2024/04/11 10:54:10;;;;;;;;;;;21.60;48.50;;;;;;1564809;74;1314;-75
2024/04/11 10:56:21;;;;;;;;;;;21.60;48.50;;;;;;1561702;74;1922;-70
2024/04/11 10:58:28;;;;;;;;;;;21.60;48.50;;;;;;1564447;74;1294;-73
2024/04/11 11:01:07;;;;;;;;;;;21.50;48.40;;;;;;1563634;74;1726;-73
2024/04/11 11:02:32;;;;;;;;;;;21.50;48.50;;;;;;1557337;75;1446;-71
2024/04/11 11:04:34;;;;;;;;;;;21.60;48.40;;;;;;1559093;74;722;-73
2024/04/11 11:06:40;;;;;;;;;;;21.50;48.50;;;;;;1565421;74;735;-71
2024/04/11 11:08:46;;;;;;;;;;;21.60;48.50;;;;;;1562560;74;1450;-74
2024/04/11 11:10:45;;;;;;;;;;;21.50;48.40;;;;;;1563646;75;856;-71
2024/04/11 11:12:49;;;;;;;;;;;21.50;48.40;;;;;;1545930;76;690;-70
2024/04/11 11:14:53;;;;;;;;;;;21.50;48.40;;;;;;1564620;75;1680;-72
2024/04/11 11:17:01;;;;;;;;;;;21.50;48.40;;;;;;1566095;74;1911;-71
2024/04/11 11:19:02;;;;;;;;;;;21.50;48.40;;;;;;1567328;74;1660;-73
2024/04/11 11:21:07;;;;;;;;;;;21.60;48.40;;;;;;1563987;74;753;-69
2024/04/11 11:23:13;;;;;;;;;;;21.60;48.40;;;;;;1558610;74;1727;-74
2024/04/11 11:25:11;;;;;;;;;;;21.50;48.40;;;;;;1562011;74;1642;-70
2024/04/11 11:27:13;;;;;;;;;;;21.60;48.40;;;;;;1561877;74;1467;-74
2024/04/11 11:29:25;;;;;;;;;;;21.50;48.40;;;;;;1562959;75;1373;-75
2024/04/11 11:31:31;;;;;;;;;;;21.50;48.40;;;;;;1563378;74;1542;-72
2024/04/11 11:33:29;;;;;;;;;;;21.50;48.40;;;;;;1562079;74;1519;-73
2024/04/11 11:35:33;;;;;;;;;;;21.60;48.40;;;;;;1546385;76;629;-71
2024/04/11 11:37:35;;;;;;;;;;;21.60;48.40;;;;;;1559649;74;1933;-74
2024/04/11 11:39:39;;;;;;;;;;;21.60;48.40;;;;;;1557145;74;1136;-74
2024/04/11 11:41:47;;;;;;;;;;;21.50;48.40;;;;;;1564950;74;1431;-71
2024/04/11 11:43:44;;;;;;;;;;;21.50;48.30;;;;;;1562780;74;1661;-70
2024/04/11 11:48:12;;;;;;;;;;;21.50;48.30;;;;;;1549664;74;1225;-71
2024/04/11 11:50:16;;;;;;;;;;;21.50;48.30;;;;;;1550282;74;1107;-71
2024/04/11 11:52:14;;;;;;;;;;;21.40;48.20;;;;;;1555438;74;1640;-71
2024/04/11 11:54:15;;;;;;;;;;;21.50;48.40;;;;;;1550260;74;746;-71
2024/04/11 11:56:22;;;;;;;;;;;21.50;48.30;;;;;;1556498;75;1356;-71
2024/04/11 11:58:23;;;;;;;;;;;21.50;48.40;;;;;;1553124;75;1928;-72
2024/04/11 12:00:32;;;;;;;;;;;21.50;48.40;;;;;;1556087;74;1140;-72
2024/04/11 12:02:28;;;;;;;;;;;21.60;48.30;;;;;;1556881;75;1644;-70
2024/04/11 12:04:30;;;;;;;;;;;21.50;48.30;;;;;;1549844;74;658;-73
2024/04/11 12:06:35;;;;;;;;;;;21.50;48.30;;;;;;1557047;75;702;-72
2024/04/11 12:08:37;;;;;;;;;;;21.50;48.30;;;;;;1557097;74;1132;-70
2024/04/11 12:15:19;;;;;;;;;;;21.60;48.20;;;;;;1555935;74;927;-70
2024/04/11 12:17:23;;;;;;;;;;;21.50;48.30;;;;;;1555136;74;1978;-74